Time;durP1;ratioP1;P1;durP2;ratioP2;P2;SDS_P1;SDS_P2;PMS_P1;PMS_P2;Temp;Humidity;BMP_temperature;BMP_pressure;BME280_temperature;BME280_humidity;BME280_pressure;Samples;Min_cycle;Max_cycle;Signal;HPM_P1;HPM_P2
2021/07/31 00:01:40;;;;;;;15.65;8.98;;;;;;;;;;5095424;28;20118;-59
2021/07/31 00:04:06;;;;;;;11.85;8.60;;;;;;;;;;5095186;28;20394;-60
2021/07/31 00:06:33;;;;;;;11.88;8.73;;;;;;;;;;5091788;28;20051;-60
2021/07/31 00:08:59;;;;;;;13.98;9.93;;;;;;;;;;5095961;28;20044;-59
2021/07/31 00:11:25;;;;;;;15.45;8.80;;;;;;;;;;5077027;28;20074;-59
2021/07/31 00:13:52;;;;;;;15.18;9.20;;;;;;;;;;5095446;28;20065;-59
2021/07/31 00:16:18;;;;;;;15.05;9.20;;;;;;;;;;5093859;28;20047;-59
2021/07/31 00:18:44;;;;;;;12.60;8.85;;;;;;;;;;5073614;28;20032;-59
2021/07/31 00:21:11;;;;;;;13.75;9.02;;;;;;;;;;5093096;28;20101;-59
2021/07/31 00:23:37;;;;;;;14.27;9.73;;;;;;;;;;5094977;28;20560;-59
2021/07/31 00:26:03;;;;;;;14.85;8.75;;;;;;;;;;5095327;28;20491;-59
2021/07/31 00:28:30;;;;;;;14.60;8.85;;;;;;;;;;5095126;28;20040;-59
2021/07/31 00:30:56;;;;;;;14.95;9.77;;;;;;;;;;5094600;28;20052;-60
2021/07/31 00:33:22;;;;;;;14.77;10.18;;;;;;;;;;5091090;28;20123;-60
2021/07/31 00:35:49;;;;;;;13.52;9.68;;;;;;;;;;5097109;28;20051;-59
2021/07/31 00:38:15;;;;;;;15.32;8.98;;;;;;;;;;5095068;28;20044;-60
2021/07/31 00:40:41;;;;;;;18.80;9.90;;;;;;;;;;5095087;28;20048;-60
2021/07/31 00:43:08;;;;;;;17.40;9.65;;;;;;;;;;5095025;28;20077;-59
2021/07/31 00:45:35;;;;;;;17.55;10.73;;;;;;;;;;5091381;28;20192;-60
2021/07/31 00:48:02;;;;;;;15.45;9.88;;;;;;;;;;5095167;28;20044;-59
2021/07/31 00:50:31;;;;;;;13.18;9.40;;;;;;;;;;5077673;28;20499;-59
2021/07/31 00:52:59;;;;;;;15.75;9.65;;;;;;;;;;5076815;28;20060;-59
2021/07/31 00:55:27;;;;;;;15.00;9.65;;;;;;;;;;5075779;28;20127;-59
2021/07/31 00:57:53;;;;;;;14.00;10.18;;;;;;;;;;5094251;28;20044;-59
2021/07/31 01:00:27;;;;;;;14.75;10.13;;;;;;;;;;5060243;28;20045;-59
2021/07/31 01:02:53;;;;;;;17.33;10.85;;;;;;;;;;5112249;28;20048;-59
2021/07/31 01:05:20;;;;;;;13.70;9.10;;;;;;;;;;5080798;28;20075;-60
2021/07/31 01:07:47;;;;;;;15.02;9.07;;;;;;;;;;5098592;28;20142;-59
2021/07/31 01:10:13;;;;;;;15.60;9.90;;;;;;;;;;5098458;28;20043;-59
2021/07/31 01:12:41;;;;;;;13.45;8.82;;;;;;;;;;5095772;28;20044;-59
2021/07/31 01:15:09;;;;;;;14.30;8.90;;;;;;;;;;5078644;28;20044;-59
2021/07/31 01:17:35;;;;;;;16.65;9.38;;;;;;;;;;5099935;28;20097;-59
2021/07/31 01:20:02;;;;;;;16.27;10.35;;;;;;;;;;5080399;28;20044;-60
2021/07/31 01:22:30;;;;;;;18.30;10.15;;;;;;;;;;5080205;28;20048;-59
2021/07/31 01:25:01;;;;;;;17.63;9.85;;;;;;;;;;5098066;28;20151;-59
2021/07/31 01:27:27;;;;;;;18.77;9.10;;;;;;;;;;5077836;28;20049;-59
2021/07/31 01:29:53;;;;;;;15.80;8.90;;;;;;;;;;5081899;28;20155;-59
2021/07/31 01:32:20;;;;;;;11.07;8.48;;;;;;;;;;5080244;28;20040;-59
2021/07/31 01:34:49;;;;;;;18.42;9.57;;;;;;;;;;5078892;28;20129;-59
2021/07/31 01:37:15;;;;;;;15.93;9.40;;;;;;;;;;5061936;28;20452;-59
2021/07/31 01:39:45;;;;;;;12.68;8.48;;;;;;;;;;5077749;28;20043;-60
2021/07/31 01:42:11;;;;;;;12.00;8.68;;;;;;;;;;5077799;28;20510;-59
2021/07/31 01:44:38;;;;;;;13.05;8.98;;;;;;;;;;5097598;28;20131;-59
2021/07/31 01:47:04;;;;;;;17.17;9.25;;;;;;;;;;5079613;28;20599;-59
2021/07/31 01:49:31;;;;;;;14.88;8.73;;;;;;;;;;5079849;28;20098;-59
2021/07/31 01:52:08;;;;;;;11.82;8.32;;;;;;;;;;5079694;28;20059;-59
2021/07/31 01:54:35;;;;;;;11.90;8.18;;;;;;;;;;5076286;28;20048;-59
2021/07/31 01:57:02;;;;;;;14.63;9.20;;;;;;;;;;5079637;28;20491;-59
2021/07/31 01:59:49;;;;;;;14.00;9.00;;;;;;;;;;5098800;28;20113;-59
2021/07/31 02:02:16;;;;;;;15.05;8.75;;;;;;;;;;5097575;28;20127;-59
2021/07/31 02:04:51;;;;;;;10.80;7.65;;;;;;;;;;5097520;28;20044;-59
2021/07/31 02:07:31;;;;;;;16.73;9.15;;;;;;;;;;5079345;28;20064;-59
2021/07/31 02:09:58;;;;;;;11.35;8.25;;;;;;;;;;5078759;28;20043;-59
2021/07/31 02:12:25;;;;;;;16.80;9.05;;;;;;;;;;5073911;28;20047;-59
2021/07/31 02:14:52;;;;;;;14.65;8.13;;;;;;;;;;5081188;28;20040;-59
2021/07/31 02:17:21;;;;;;;17.13;8.77;;;;;;;;;;5077600;28;20055;-59
2021/07/31 02:19:48;;;;;;;12.95;8.63;;;;;;;;;;5097239;28;20123;-59
2021/07/31 02:22:29;;;;;;;13.38;8.65;;;;;;;;;;5079083;28;20051;-59
2021/07/31 02:25:14;;;;;;;13.95;8.15;;;;;;;;;;5097152;28;20048;-60
2021/07/31 02:28:10;;;;;;;17.25;8.65;;;;;;;;;;5011489;28;20069;-59
2021/07/31 02:30:36;;;;;;;13.02;7.72;;;;;;;;;;5010661;28;20045;-59
2021/07/31 02:33:03;;;;;;;13.15;8.52;;;;;;;;;;5011980;28;20061;-59
2021/07/31 02:35:33;;;;;;;11.10;7.47;;;;;;;;;;5012400;28;20076;-60
2021/07/31 02:38:18;;;;;;;19.48;8.90;;;;;;;;;;5011619;28;20054;-59
2021/07/31 02:40:45;;;;;;;16.85;8.52;;;;;;;;;;5011723;28;20073;-59
2021/07/31 02:43:12;;;;;;;14.07;8.35;;;;;;;;;;5027804;28;20045;-59
2021/07/31 02:45:39;;;;;;;13.07;8.15;;;;;;;;;;5011451;28;20050;-59
2021/07/31 02:48:05;;;;;;;14.23;7.97;;;;;;;;;;4995540;28;20498;-59
2021/07/31 02:50:32;;;;;;;13.90;9.07;;;;;;;;;;5011989;28;20077;-59
2021/07/31 02:53:10;;;;;;;13.48;8.52;;;;;;;;;;5027683;28;20134;-59
2021/07/31 02:55:36;;;;;;;15.82;8.20;;;;;;;;;;5011442;28;20046;-59
2021/07/31 02:58:03;;;;;;;12.82;7.47;;;;;;;;;;5027696;28;20060;-59
2021/07/31 03:00:30;;;;;;;15.52;6.85;;;;;;;;;;4993711;28;20110;-59
2021/07/31 03:02:57;;;;;;;13.77;8.32;;;;;;;;;;4995641;28;20045;-59
2021/07/31 03:05:23;;;;;;;14.48;7.47;;;;;;;;;;5085476;28;20559;-59
2021/07/31 03:07:59;;;;;;;14.57;7.78;;;;;;;;;;5096329;28;20115;-59
2021/07/31 03:10:26;;;;;;;13.30;8.32;;;;;;;;;;5077983;28;20115;-59
2021/07/31 03:12:52;;;;;;;12.40;7.57;;;;;;;;;;5077120;28;20074;-59
2021/07/31 03:15:19;;;;;;;10.65;7.03;;;;;;;;;;5074092;28;20403;-59
2021/07/31 03:17:46;;;;;;;13.88;7.40;;;;;;;;;;5079740;28;20502;-60
2021/07/31 03:20:13;;;;;;;12.23;8.18;;;;;;;;;;5077180;28;20044;-59
2021/07/31 03:22:43;;;;;;;10.48;6.68;;;;;;;;;;5076968;28;20526;-59
2021/07/31 03:25:10;;;;;;;12.02;7.45;;;;;;;;;;5076931;28;20036;-59
2021/07/31 03:27:39;;;;;;;12.95;6.80;;;;;;;;;;5074209;28;20380;-59
2021/07/31 03:30:28;;;;;;;11.90;7.68;;;;;;;;;;5055838;28;20335;-59
2021/07/31 03:33:03;;;;;;;13.60;8.40;;;;;;;;;;5077664;28;20048;-59
2021/07/31 03:35:29;;;;;;;10.50;7.47;;;;;;;;;;5076673;28;20196;-59
2021/07/31 03:38:19;;;;;;;16.20;7.63;;;;;;;;;;5095571;28;20079;-60
2021/07/31 03:40:47;;;;;;;11.65;7.60;;;;;;;;;;5077543;28;20064;-59
2021/07/31 03:43:15;;;;;;;11.52;7.60;;;;;;;;;;5077825;28;20514;-59
2021/07/31 03:45:42;;;;;;;12.88;8.48;;;;;;;;;;5093234;28;20040;-60
2021/07/31 03:48:09;;;;;;;14.52;8.10;;;;;;;;;;5076407;28;20097;-59
2021/07/31 03:50:39;;;;;;;12.65;7.68;;;;;;;;;;5097204;28;20044;-59
2021/07/31 03:53:06;;;;;;;12.15;7.40;;;;;;;;;;5077348;28;20067;-59
2021/07/31 03:55:36;;;;;;;14.52;7.43;;;;;;;;;;5077328;28;20036;-59
2021/07/31 03:58:04;;;;;;;11.52;7.88;;;;;;;;;;5095701;28;20043;-59
2021/07/31 04:00:31;;;;;;;11.70;7.28;;;;;;;;;;5073585;28;20495;-59
2021/07/31 04:03:02;;;;;;;10.13;7.53;;;;;;;;;;5095639;28;20083;-60
2021/07/31 04:05:29;;;;;;;11.35;7.13;;;;;;;;;;5077865;28;20052;-60
2021/07/31 04:08:27;;;;;;;12.05;7.30;;;;;;;;;;5010423;28;20077;-60
2021/07/31 04:11:16;;;;;;;12.68;7.18;;;;;;;;;;4961130;28;20062;-59
2021/07/31 04:14:01;;;;;;;15.60;8.27;;;;;;;;;;4960364;28;20580;-60
2021/07/31 04:16:46;;;;;;;;;;;;;;;;;;4960859;28;20531;-59
2021/07/31 04:19:13;;;;;;;10.02;7.25;;;;;;;;;;4960307;28;20405;-60
2021/07/31 04:21:43;;;;;;;12.77;7.40;;;;;;;;;;4957998;28;20244;-60
2021/07/31 04:24:13;;;;;;;15.52;9.73;;;;;;;;;;4939588;28;20130;-59
2021/07/31 04:26:39;;;;;;;12.30;7.82;;;;;;;;;;4958783;28;20054;-60
2021/07/31 04:29:06;;;;;;;11.10;7.45;;;;;;;;;;4960138;28;20507;-60
2021/07/31 04:31:32;;;;;;;13.57;7.55;;;;;;;;;;4960212;28;20071;-60
2021/07/31 04:33:58;;;;;;;10.45;7.30;;;;;;;;;;4963551;28;20070;-60
2021/07/31 04:36:25;;;;;;;11.50;7.20;;;;;;;;;;4959396;28;20059;-59
2021/07/31 04:38:51;;;;;;;13.38;7.72;;;;;;;;;;4960642;28;20058;-60
2021/07/31 04:41:18;;;;;;;10.05;6.10;;;;;;;;;;4963914;28;20511;-59
2021/07/31 04:43:44;;;;;;;20.40;7.32;;;;;;;;;;4997263;28;20053;-59
2021/07/31 04:46:10;;;;;;;15.95;7.32;;;;;;;;;;5052537;28;20052;-60
2021/07/31 04:48:36;;;;;;;8.18;6.10;;;;;;;;;;5064128;28;20040;-60
2021/07/31 04:51:04;;;;;;;10.10;6.65;;;;;;;;;;5098838;28;20048;-60
2021/07/31 04:53:30;;;;;;;13.38;7.07;;;;;;;;;;5099388;28;20105;-60
2021/07/31 04:55:57;;;;;;;12.75;6.43;;;;;;;;;;5080821;28;20052;-60
2021/07/31 04:58:24;;;;;;;9.05;5.72;;;;;;;;;;5080621;28;20040;-59
2021/07/31 05:00:50;;;;;;;8.70;6.10;;;;;;;;;;5097380;28;20046;-60
2021/07/31 05:03:17;;;;;;;10.70;6.03;;;;;;;;;;5095606;28;20059;-60
2021/07/31 05:05:44;;;;;;;11.13;5.95;;;;;;;;;;5100594;28;20040;-60
2021/07/31 05:08:10;;;;;;;11.95;5.78;;;;;;;;;;5098227;28;20403;-60
2021/07/31 05:10:47;;;;;;;10.00;5.75;;;;;;;;;;5098546;28;20079;-60
2021/07/31 05:13:14;;;;;;;7.85;6.00;;;;;;;;;;5098533;28;20050;-60
2021/07/31 05:15:41;;;;;;;8.88;5.60;;;;;;;;;;5095724;28;20059;-60
2021/07/31 05:18:08;;;;;;;6.85;5.47;;;;;;;;;;5097491;28;20044;-60
2021/07/31 05:20:35;;;;;;;7.43;4.78;;;;;;;;;;5099803;28;20433;-60
2021/07/31 05:23:01;;;;;;;8.57;5.20;;;;;;;;;;5098154;28;20079;-60
2021/07/31 05:25:28;;;;;;;7.32;4.50;;;;;;;;;;5098148;28;20040;-60
2021/07/31 05:27:54;;;;;;;7.63;4.60;;;;;;;;;;5095871;28;20120;-60
2021/07/31 05:30:21;;;;;;;7.57;4.38;;;;;;;;;;5076099;28;20091;-60
2021/07/31 05:32:47;;;;;;;6.30;4.40;;;;;;;;;;5099281;28;20040;-60
2021/07/31 05:35:13;;;;;;;7.72;4.45;;;;;;;;;;5098166;28;20071;-60
2021/07/31 05:37:40;;;;;;;8.82;4.15;;;;;;;;;;5097788;28;20048;-60
2021/07/31 05:40:07;;;;;;;5.85;4.03;;;;;;;;;;5098022;28;20046;-60
2021/07/31 05:42:33;;;;;;;11.18;4.60;;;;;;;;;;5076140;28;20186;-60
2021/07/31 05:45:01;;;;;;;7.20;3.92;;;;;;;;;;5097897;28;20157;-60
2021/07/31 05:47:28;;;;;;;4.95;3.15;;;;;;;;;;5097110;28;20048;-60
2021/07/31 05:49:55;;;;;;;5.85;3.75;;;;;;;;;;5097672;28;20550;-60
2021/07/31 05:52:25;;;;;;;5.95;3.45;;;;;;;;;;5097602;28;20498;-60
2021/07/31 05:54:55;;;;;;;7.35;3.30;;;;;;;;;;5096640;28;20402;-60
2021/07/31 05:57:22;;;;;;;6.30;3.70;;;;;;;;;;5093809;28;20092;-60
2021/07/31 05:59:48;;;;;;;5.10;3.13;;;;;;;;;;5099700;28;20076;-60
2021/07/31 06:02:15;;;;;;;6.55;3.95;;;;;;;;;;5097583;28;20097;-61
2021/07/31 06:04:42;;;;;;;7.40;3.75;;;;;;;;;;5097340;28;20048;-60
2021/07/31 06:07:10;;;;;;;5.78;3.65;;;;;;;;;;5095971;28;20512;-60
2021/07/31 06:09:37;;;;;;;7.03;3.58;;;;;;;;;;5092502;28;20076;-60
2021/07/31 06:12:04;;;;;;;5.45;3.53;;;;;;;;;;5097897;28;20075;-60
2021/07/31 06:14:33;;;;;;;8.52;3.10;;;;;;;;;;5095955;28;20134;-60
2021/07/31 06:16:59;;;;;;;3.92;2.92;;;;;;;;;;5097371;28;20394;-60
2021/07/31 06:19:25;;;;;;;3.88;2.60;;;;;;;;;;5097036;28;20074;-60
2021/07/31 06:21:52;;;;;;;7.97;3.05;;;;;;;;;;5096071;28;20407;-60
2021/07/31 06:24:19;;;;;;;7.95;3.15;;;;;;;;;;5093762;28;20056;-61
2021/07/31 06:26:45;;;;;;;5.60;3.00;;;;;;;;;;5099003;28;20047;-60
2021/07/31 06:29:11;;;;;;;4.63;2.90;;;;;;;;;;5097088;28;20043;-60
2021/07/31 06:31:37;;;;;;;4.47;2.60;;;;;;;;;;5097096;28;20040;-61
2021/07/31 06:34:04;;;;;;;7.72;3.03;;;;;;;;;;5092227;28;20048;-60
2021/07/31 06:36:30;;;;;;;6.95;3.20;;;;;;;;;;5091544;28;20510;-60
2021/07/31 06:38:57;;;;;;;5.80;3.08;;;;;;;;;;5095669;28;20044;-60
2021/07/31 06:41:23;;;;;;;5.78;2.70;;;;;;;;;;5103750;28;20555;-61
2021/07/31 06:43:49;;;;;;;5.53;2.92;;;;;;;;;;5101474;28;20069;-61
2021/07/31 06:46:16;;;;;;;5.85;3.08;;;;;;;;;;5095377;28;20069;-60
2021/07/31 06:48:43;;;;;;;12.50;3.08;;;;;;;;;;5092300;28;20127;-61
2021/07/31 06:51:09;;;;;;;5.47;2.60;;;;;;;;;;5092437;28;20079;-59
2021/07/31 06:53:37;;;;;;;9.25;3.00;;;;;;;;;;5096894;28;20052;-60
2021/07/31 06:56:03;;;;;;;5.32;2.53;;;;;;;;;;5078135;28;20036;-60
2021/07/31 06:58:30;;;;;;;6.28;3.00;;;;;;;;;;5077967;28;20518;-59
2021/07/31 07:00:56;;;;;;;7.55;3.08;;;;;;;;;;5095307;28;20490;-58
2021/07/31 07:03:22;;;;;;;5.25;2.97;;;;;;;;;;5073657;28;20507;-59
2021/07/31 07:05:49;;;;;;;5.80;3.42;;;;;;;;;;5097742;28;20075;-58
2021/07/31 07:08:15;;;;;;;5.10;3.17;;;;;;;;;;5095740;28;20048;-59
2021/07/31 07:10:41;;;;;;;5.82;3.00;;;;;;;;;;5095842;28;20047;-58
2021/07/31 07:13:08;;;;;;;6.32;3.17;;;;;;;;;;5095695;28;20438;-59
2021/07/31 07:15:35;;;;;;;7.95;3.03;;;;;;;;;;5090922;28;20565;-60
2021/07/31 07:18:01;;;;;;;5.45;2.72;;;;;;;;;;5095754;28;20073;-59
2021/07/31 07:20:28;;;;;;;6.13;3.13;;;;;;;;;;5096235;28;20572;-60
2021/07/31 07:22:54;;;;;;;4.68;3.30;;;;;;;;;;5095432;28;20074;-60
2021/07/31 07:25:21;;;;;;;8.82;4.00;;;;;;;;;;5094187;28;20051;-60
2021/07/31 07:27:47;;;;;;;6.32;3.75;;;;;;;;;;5092063;28;20044;-60
2021/07/31 07:30:13;;;;;;;11.38;3.95;;;;;;;;;;5074943;28;20093;-59
2021/07/31 07:32:40;;;;;;;6.35;3.85;;;;;;;;;;5095169;28;20055;-60
2021/07/31 07:35:06;;;;;;;8.20;4.15;;;;;;;;;;5095265;28;20052;-58
2021/07/31 07:37:33;;;;;;;7.03;3.83;;;;;;;;;;5095291;28;20455;-59
2021/07/31 07:39:59;;;;;;;5.40;3.97;;;;;;;;;;5077253;28;20080;-59
2021/07/31 07:42:26;;;;;;;6.45;3.80;;;;;;;;;;5090851;28;20059;-58
2021/07/31 07:44:52;;;;;;;12.30;4.15;;;;;;;;;;5097252;28;20048;-59
2021/07/31 07:47:18;;;;;;;11.50;3.80;;;;;;;;;;5094810;28;20404;-58
2021/07/31 07:49:45;;;;;;;6.82;3.78;;;;;;;;;;5095180;28;20075;-60
2021/07/31 07:52:11;;;;;;;6.70;3.67;;;;;;;;;;5094890;28;20101;-59
2021/07/31 07:54:37;;;;;;;4.85;3.67;;;;;;;;;;5091997;28;20044;-59
2021/07/31 07:57:07;;;;;;;5.35;3.25;;;;;;;;;;5094709;28;20040;-61
2021/07/31 07:59:36;;;;;;;6.82;3.55;;;;;;;;;;5097657;28;20040;-60
2021/07/31 08:02:03;;;;;;;4.80;3.40;;;;;;;;;;5096212;28;20131;-60
2021/07/31 08:04:33;;;;;;;3.72;2.90;;;;;;;;;;5093845;28;20036;-60
2021/07/31 08:07:00;;;;;;;6.82;3.28;;;;;;;;;;5093218;28;20480;-60
2021/07/31 08:09:26;;;;;;;5.10;3.05;;;;;;;;;;5091122;28;20052;-60
2021/07/31 08:11:53;;;;;;;11.25;3.45;;;;;;;;;;5080189;28;20377;-60
2021/07/31 08:14:19;;;;;;;8.93;3.53;;;;;;;;;;5094349;28;20048;-61
2021/07/31 08:16:45;;;;;;;5.32;3.28;;;;;;;;;;5094317;28;20109;-61
2021/07/31 08:19:12;;;;;;;8.68;3.88;;;;;;;;;;5095349;28;20063;-61
2021/07/31 08:21:38;;;;;;;5.75;3.15;;;;;;;;;;5092176;28;20048;-61
2021/07/31 08:24:05;;;;;;;5.85;3.35;;;;;;;;;;5094337;28;20040;-61
2021/07/31 08:26:31;;;;;;;5.40;3.30;;;;;;;;;;5079046;28;20091;-61
2021/07/31 08:28:58;;;;;;;13.23;5.68;;;;;;;;;;5095244;28;20085;-61
2021/07/31 08:31:25;;;;;;;9.35;3.05;;;;;;;;;;5095009;28;20100;-60
2021/07/31 08:33:51;;;;;;;6.85;3.42;;;;;;;;;;5093828;28;20063;-61
2021/07/31 08:36:17;;;;;;;6.53;3.67;;;;;;;;;;5092136;28;20045;-60
2021/07/31 08:38:44;;;;;;;7.32;3.45;;;;;;;;;;5097140;28;20078;-60
2021/07/31 08:41:10;;;;;;;6.68;3.72;;;;;;;;;;5095090;28;20071;-60
2021/07/31 08:43:36;;;;;;;8.43;3.90;;;;;;;;;;5075817;28;20116;-60
2021/07/31 08:46:11;;;;;;;5.55;3.60;;;;;;;;;;5089194;28;20044;-60
2021/07/31 08:48:38;;;;;;;6.70;3.65;;;;;;;;;;5090927;28;20059;-61
2021/07/31 08:51:05;;;;;;;9.32;3.90;;;;;;;;;;5091569;28;20064;-61
2021/07/31 08:53:31;;;;;;;5.20;3.13;;;;;;;;;;5096586;28;20060;-61
2021/07/31 08:55:58;;;;;;;9.07;3.42;;;;;;;;;;5088761;28;20068;-61
2021/07/31 08:58:24;;;;;;;15.00;3.70;;;;;;;;;;5094390;28;20119;-61
2021/07/31 09:00:51;;;;;;;7.85;3.63;;;;;;;;;;5093418;28;20043;-61
2021/07/31 09:03:18;;;;;;;6.57;3.22;;;;;;;;;;5073871;28;20530;-61
2021/07/31 09:05:44;;;;;;;9.20;3.58;;;;;;;;;;5096703;28;20484;-61
2021/07/31 09:08:11;;;;;;;8.93;3.78;;;;;;;;;;5090220;28;20063;-61
2021/07/31 09:10:39;;;;;;;7.07;3.33;;;;;;;;;;5090546;28;20056;-61
2021/07/31 09:13:06;;;;;;;7.10;3.47;;;;;;;;;;5093445;28;20047;-60
2021/07/31 09:15:43;;;;;;;11.98;4.13;;;;;;;;;;5089913;28;20052;-61
2021/07/31 09:18:22;;;;;;;6.35;3.92;;;;;;;;;;5086844;28;20467;-61
2021/07/31 09:21:01;;;;;;;8.15;3.88;;;;;;;;;;5098225;28;20427;-61
2021/07/31 09:23:45;;;;;;;6.47;3.53;;;;;;;;;;5091979;28;20050;-61
2021/07/31 09:26:11;;;;;;;;;;;;;;;;;;5093064;28;20044;-61
2021/07/31 09:28:42;;;;;;;6.82;4.25;;;;;;;;;;5093138;28;20387;-61
2021/07/31 09:31:20;;;;;;;7.53;4.57;;;;;;;;;;5093911;28;20068;-61
2021/07/31 09:33:48;;;;;;;7.10;4.07;;;;;;;;;;5095555;28;20115;-62
2021/07/31 09:36:14;;;;;;;10.88;4.45;;;;;;;;;;5097562;28;20047;-61
2021/07/31 09:38:43;;;;;;;8.23;4.18;;;;;;;;;;5100215;28;20048;-61
2021/07/31 09:41:25;;;;;;;9.88;4.70;;;;;;;;;;5096712;28;20102;-61
2021/07/31 09:44:00;;;;;;;10.25;4.38;;;;;;;;;;5095964;28;20122;-61
2021/07/31 09:46:35;;;;;;;6.18;4.85;;;;;;;;;;5097829;28;20503;-61
2021/07/31 09:49:02;;;;;;;7.78;4.35;;;;;;;;;;5097925;28;20078;-61
2021/07/31 09:51:33;;;;;;;7.72;4.80;;;;;;;;;;5082737;28;20044;-61
2021/07/31 09:54:05;;;;;;;10.43;4.70;;;;;;;;;;5094672;28;20491;-61
2021/07/31 09:56:37;;;;;;;5.70;4.55;;;;;;;;;;5090716;28;20071;-62
2021/07/31 09:59:05;;;;;;;8.93;4.65;;;;;;;;;;5094400;28;20052;-62
2021/07/31 10:01:32;;;;;;;9.00;4.28;;;;;;;;;;5093308;28;20487;-62
2021/07/31 10:03:59;;;;;;;6.03;4.20;;;;;;;;;;5077405;28;20438;-61
2021/07/31 10:06:26;;;;;;;13.00;4.55;;;;;;;;;;5093208;28;20507;-61
2021/07/31 10:08:52;;;;;;;6.28;4.90;;;;;;;;;;5099566;28;20048;-62
2021/07/31 10:11:19;;;;;;;8.27;4.97;;;;;;;;;;5096599;28;20128;-61
2021/07/31 10:13:46;;;;;;;13.05;7.90;;;;;;;;;;5095216;28;20052;-59
2021/07/31 10:16:13;;;;;;;19.95;9.68;;;;;;;;;;5096650;28;20043;-61
2021/07/31 10:18:39;;;;;;;11.27;4.68;;;;;;;;;;5093619;28;20088;-60
2021/07/31 10:21:06;;;;;;;6.63;4.80;;;;;;;;;;5095104;28;20052;-59
2021/07/31 10:23:51;;;;;;;9.60;4.70;;;;;;;;;;5097516;28;20040;-60
2021/07/31 10:26:18;;;;;;;7.50;4.90;;;;;;;;;;5095875;28;20078;-60
2021/07/31 10:28:44;;;;;;;10.30;5.00;;;;;;;;;;5094670;28;20078;-61
2021/07/31 10:31:33;;;;;;;15.40;4.80;;;;;;;;;;5094193;28;20504;-60
2021/07/31 10:34:00;;;;;;;8.23;5.00;;;;;;;;;;5081464;28;20517;-59
2021/07/31 10:36:33;;;;;;;7.68;4.85;;;;;;;;;;5090017;28;20131;-60
2021/07/31 10:39:01;;;;;;;7.38;5.25;;;;;;;;;;5104561;28;20063;-60
2021/07/31 10:41:46;;;;;;;7.30;5.20;;;;;;;;;;5093304;28;20097;-59
2021/07/31 10:44:13;;;;;;;7.63;6.07;;;;;;;;;;5094789;28;20082;-60
2021/07/31 10:46:39;;;;;;;7.88;5.18;;;;;;;;;;5096491;28;20063;-60
2021/07/31 10:49:24;;;;;;;7.45;5.70;;;;;;;;;;5096249;28;20045;-60
2021/07/31 10:51:50;;;;;;;7.20;5.05;;;;;;;;;;5094195;28;20518;-60
2021/07/31 10:54:16;;;;;;;7.88;4.97;;;;;;;;;;5093208;28;20048;-60
2021/07/31 10:56:53;;;;;;;9.63;6.05;;;;;;;;;;5097969;28;20479;-60
2021/07/31 10:59:20;;;;;;;13.65;5.90;;;;;;;;;;5096106;28;20052;-59
2021/07/31 11:01:47;;;;;;;8.35;5.28;;;;;;;;;;5096043;28;20040;-60
2021/07/31 11:04:39;;;;;;;10.50;6.00;;;;;;;;;;5095818;28;20048;-60
2021/07/31 11:07:09;;;;;;;7.35;5.65;;;;;;;;;;5095829;28;20062;-60
2021/07/31 11:09:35;;;;;;;11.55;5.70;;;;;;;;;;5074294;28;20040;-60
2021/07/31 11:12:36;;;;;;;11.43;6.53;;;;;;;;;;5096593;28;20044;-60
2021/07/31 11:15:04;;;;;;;15.52;6.45;;;;;;;;;;5105538;28;20048;-60
2021/07/31 11:17:30;;;;;;;15.13;6.82;;;;;;;;;;5096318;28;20071;-60
2021/07/31 11:19:56;;;;;;;13.48;6.03;;;;;;;;;;5094375;28;20076;-62
2021/07/31 11:22:26;;;;;;;11.27;6.20;;;;;;;;;;5094073;28;20067;-59
2021/07/31 11:24:55;;;;;;;7.75;5.78;;;;;;;;;;5075850;28;20089;-61
2021/07/31 11:27:21;;;;;;;10.40;5.85;;;;;;;;;;5092118;28;20101;-59
2021/07/31 11:29:55;;;;;;;9.82;6.00;;;;;;;;;;5097532;28;20052;-60
2021/07/31 11:32:28;;;;;;;8.82;6.13;;;;;;;;;;5095397;28;20052;-61
2021/07/31 11:34:55;;;;;;;15.25;6.05;;;;;;;;;;5095462;28;20051;-61
2021/07/31 11:37:23;;;;;;;15.38;6.70;;;;;;;;;;5095443;28;20043;-58
2021/07/31 11:39:49;;;;;;;13.30;6.25;;;;;;;;;;5093292;28;20044;-59
2021/07/31 11:42:19;;;;;;;10.48;5.95;;;;;;;;;;5091711;28;20052;-59
2021/07/31 11:44:45;;;;;;;10.57;6.28;;;;;;;;;;5097380;28;20445;-60
2021/07/31 11:47:11;;;;;;;11.02;5.93;;;;;;;;;;5077282;28;20044;-60
2021/07/31 11:49:38;;;;;;;9.27;5.85;;;;;;;;;;5095432;28;20517;-60
2021/07/31 11:52:06;;;;;;;10.75;6.07;;;;;;;;;;5094798;28;20056;-59
2021/07/31 11:54:34;;;;;;;13.18;5.95;;;;;;;;;;5090677;28;20480;-60
2021/07/31 11:57:04;;;;;;;11.55;6.70;;;;;;;;;;5096419;28;20052;-60
2021/07/31 11:59:34;;;;;;;10.13;6.60;;;;;;;;;;5094434;28;20097;-60
2021/07/31 12:02:00;;;;;;;9.07;6.57;;;;;;;;;;5093526;28;20506;-60
2021/07/31 12:04:45;;;;;;;9.98;6.07;;;;;;;;;;5094851;28;20079;-60
2021/07/31 12:07:18;;;;;;;11.98;6.10;;;;;;;;;;5094702;28;20431;-60
2021/07/31 12:10:05;;;;;;;9.82;6.60;;;;;;;;;;5074679;28;20122;-60
2021/07/31 12:12:36;;;;;;;10.52;5.95;;;;;;;;;;5074886;28;20040;-59
2021/07/31 12:15:09;;;;;;;9.82;6.57;;;;;;;;;;5077261;28;20079;-60
2021/07/31 12:17:37;;;;;;;13.55;7.30;;;;;;;;;;5096323;28;20048;-60
2021/07/31 12:20:04;;;;;;;11.25;6.63;;;;;;;;;;5095066;28;20068;-60
2021/07/31 12:22:31;;;;;;;10.70;6.50;;;;;;;;;;5094529;28;20036;-60
2021/07/31 12:25:17;;;;;;;10.40;7.63;;;;;;;;;;5093979;28;20040;-60
2021/07/31 12:27:49;;;;;;;16.60;7.30;;;;;;;;;;5077966;28;20130;-59
2021/07/31 12:30:28;;;;;;;11.57;7.65;;;;;;;;;;5092136;28;20047;-61
2021/07/31 12:32:59;;;;;;;10.40;8.00;;;;;;;;;;5112509;28;20052;-60
2021/07/31 12:35:32;;;;;;;14.00;8.40;;;;;;;;;;5093414;28;20123;-60
2021/07/31 12:37:58;;;;;;;16.67;8.65;;;;;;;;;;5093144;28;20086;-60
2021/07/31 12:40:25;;;;;;;14.38;8.10;;;;;;;;;;5093074;28;20429;-60
2021/07/31 12:42:51;;;;;;;14.82;7.85;;;;;;;;;;5093185;28;20047;-60
2021/07/31 12:45:17;;;;;;;14.68;7.78;;;;;;;;;;5091653;28;20503;-61
2021/07/31 12:47:44;;;;;;;14.05;7.95;;;;;;;;;;5096654;28;20047;-60
2021/07/31 12:50:10;;;;;;;14.95;8.95;;;;;;;;;;5076536;28;20093;-60
2021/07/31 12:52:36;;;;;;;12.13;7.30;;;;;;;;;;5094305;28;20088;-60
2021/07/31 12:55:03;;;;;;;20.27;7.45;;;;;;;;;;5098304;28;20112;-61
2021/07/31 12:57:30;;;;;;;10.73;6.07;;;;;;;;;;5078246;28;20071;-59
2021/07/31 12:59:57;;;;;;;9.38;5.72;;;;;;;;;;5107746;28;20049;-60
2021/07/31 13:02:23;;;;;;;10.27;5.28;;;;;;;;;;5098398;28;20048;-59
2021/07/31 13:04:49;;;;;;;8.07;5.80;;;;;;;;;;5098314;28;20597;-61
2021/07/31 13:07:16;;;;;;;7.47;5.70;;;;;;;;;;5080218;28;20090;-61
2021/07/31 13:09:42;;;;;;;8.82;5.10;;;;;;;;;;5095764;28;20123;-61
2021/07/31 13:12:09;;;;;;;6.88;5.28;;;;;;;;;;5097471;28;20044;-60
2021/07/31 13:14:35;;;;;;;7.40;5.22;;;;;;;;;;5099365;28;20415;-61
2021/07/31 13:17:01;;;;;;;7.70;5.30;;;;;;;;;;5096750;28;20044;-60
2021/07/31 13:19:28;;;;;;;9.88;5.50;;;;;;;;;;5096444;28;20098;-61
2021/07/31 13:21:54;;;;;;;7.25;5.78;;;;;;;;;;5096778;28;20043;-61
2021/07/31 13:24:20;;;;;;;6.72;5.60;;;;;;;;;;5094384;28;20051;-62
2021/07/31 13:26:46;;;;;;;9.40;6.20;;;;;;;;;;5099855;28;20055;-61
2021/07/31 13:29:13;;;;;;;7.63;5.40;;;;;;;;;;5097956;28;20511;-60
2021/07/31 13:31:46;;;;;;;8.82;5.93;;;;;;;;;;5097864;28;20078;-61
2021/07/31 13:34:15;;;;;;;8.10;5.37;;;;;;;;;;5097557;28;20051;-60
2021/07/31 13:36:43;;;;;;;6.15;5.07;;;;;;;;;;5094749;28;20296;-60
2021/07/31 13:39:12;;;;;;;8.15;6.07;;;;;;;;;;5096699;28;20510;-60
2021/07/31 13:41:39;;;;;;;10.85;6.05;;;;;;;;;;5099210;28;20044;-61
2021/07/31 13:44:14;;;;;;;10.50;5.60;;;;;;;;;;5097682;28;20079;-61
2021/07/31 13:46:40;;;;;;;8.95;5.88;;;;;;;;;;5097513;28;20470;-60
2021/07/31 13:49:07;;;;;;;12.48;6.05;;;;;;;;;;5097424;28;20494;-61
2021/07/31 13:51:33;;;;;;;10.32;5.65;;;;;;;;;;5093256;28;20046;-61
2021/07/31 13:53:59;;;;;;;6.60;5.13;;;;;;;;;;5098864;28;20075;-61
2021/07/31 13:56:26;;;;;;;14.25;5.45;;;;;;;;;;5095914;28;20522;-61
2021/07/31 13:58:52;;;;;;;9.30;5.75;;;;;;;;;;5095906;28;20036;-60
2021/07/31 14:01:22;;;;;;;9.75;5.88;;;;;;;;;;5097258;28;20051;-61
2021/07/31 14:03:49;;;;;;;9.23;5.13;;;;;;;;;;5076964;28;20075;-62
2021/07/31 14:06:15;;;;;;;7.72;5.28;;;;;;;;;;5093590;28;20063;-61
2021/07/31 14:08:41;;;;;;;7.57;5.28;;;;;;;;;;5099131;28;20075;-61
2021/07/31 14:11:09;;;;;;;12.48;5.70;;;;;;;;;;5079000;28;20055;-61
2021/07/31 14:13:35;;;;;;;7.43;5.10;;;;;;;;;;5096977;28;20109;-61
2021/07/31 14:16:01;;;;;;;9.63;5.70;;;;;;;;;;5096640;28;20036;-60
2021/07/31 14:18:27;;;;;;;7.75;5.80;;;;;;;;;;5092228;28;20072;-60
2021/07/31 14:20:54;;;;;;;7.53;5.57;;;;;;;;;;5080896;28;20071;-60
2021/07/31 14:23:20;;;;;;;6.85;4.60;;;;;;;;;;5096590;28;20047;-60
2021/07/31 14:25:47;;;;;;;8.45;4.93;;;;;;;;;;5096899;28;20531;-60
2021/07/31 14:28:13;;;;;;;7.68;5.00;;;;;;;;;;5096799;28;20044;-60
2021/07/31 14:30:39;;;;;;;7.97;5.03;;;;;;;;;;5093368;28;20043;-61
2021/07/31 14:33:06;;;;;;;6.95;5.47;;;;;;;;;;5095796;28;20051;-61
2021/07/31 14:35:32;;;;;;;10.55;5.15;;;;;;;;;;5095795;28;20047;-61
2021/07/31 14:37:58;;;;;;;10.30;5.25;;;;;;;;;;5094573;28;20044;-60
2021/07/31 14:40:25;;;;;;;8.10;5.53;;;;;;;;;;5096070;28;20036;-60
2021/07/31 14:42:52;;;;;;;6.63;5.20;;;;;;;;;;5076559;28;20050;-60
2021/07/31 14:45:19;;;;;;;6.32;4.88;;;;;;;;;;5092689;28;20060;-61